Time;durP1;ratioP1;P1;durP2;ratioP2;P2;SDS_P1;SDS_P2;PMS_P1;PMS_P2;Temp;Humidity;BMP_temperature;BMP_pressure;BME280_temperature;BME280_humidity;BME280_pressure;Samples;Min_cycle;Max_cycle;Signal;HPM_P1;HPM_P2
2023/05/27 00:02:07;;;;;;;14.27;5.20;;;13.10;91.90;;;;;;5050683;28;20433;-49
2023/05/27 00:04:35;;;;;;;13.93;5.40;;;13.00;91.90;;;;;;5051048;28;20440;-50
2023/05/27 00:07:02;;;;;;;16.30;5.87;;;13.00;92.00;;;;;;5050767;28;20453;-50
2023/05/27 00:09:29;;;;;;;13.23;4.70;;;13.20;92.20;;;;;;5049400;28;20491;-50
2023/05/27 00:11:56;;;;;;;9.93;4.77;;;12.80;92.20;;;;;;5054346;28;20480;-50
2023/05/27 00:14:24;;;;;;;11.07;5.10;;;12.90;92.40;;;;;;5053481;28;20448;-51
2023/05/27 00:16:51;;;;;;;14.33;5.70;;;12.90;92.50;;;;;;5053520;28;20450;-50
2023/05/27 00:19:18;;;;;;;15.50;5.40;;;13.00;92.70;;;;;;5053344;28;20461;-49
2023/05/27 00:21:46;;;;;;;13.93;4.97;;;12.80;92.60;;;;;;5054547;28;20552;-49
2023/05/27 00:24:13;;;;;;;11.07;4.40;;;12.80;92.80;;;;;;5053063;28;20553;-50
2023/05/27 00:26:40;;;;;;;9.93;4.67;;;13.00;93.00;;;;;;5054164;28;20581;-50
2023/05/27 00:29:07;;;;;;;12.70;4.87;;;12.80;93.20;;;;;;5053980;28;20463;-49
2023/05/27 00:31:34;;;;;;;10.10;4.13;;;12.80;93.30;;;;;;5052667;28;20526;-48
2023/05/27 00:34:02;;;;;;;15.20;5.30;;;12.70;93.40;;;;;;5052829;28;20463;-49
2023/05/27 00:36:31;;;;;;;14.17;4.50;;;12.70;93.50;;;;;;5052760;28;20454;-48
2023/05/27 00:39:01;;;;;;;17.03;5.40;;;12.60;93.70;;;;;;5052298;28;20683;-48
2023/05/27 00:41:28;;;;;;;15.97;7.20;;;12.60;93.80;;;;;;5052632;28;20569;-49
2023/05/27 00:43:56;;;;;;;13.00;4.90;;;12.60;94.00;;;;;;5052570;28;20547;-48
2023/05/27 00:46:24;;;;;;;12.83;6.40;;;12.50;94.10;;;;;;5052828;28;20429;-48
2023/05/27 00:48:51;;;;;;;16.73;5.37;;;12.50;94.20;;;;;;5053397;28;20496;-50
2023/05/27 00:51:18;;;;;;;11.87;5.00;;;12.50;94.40;;;;;;5052270;28;20456;-49
2023/05/27 00:53:45;;;;;;;14.13;4.50;;;12.60;94.60;;;;;;5052551;28;20476;-49
2023/05/27 00:56:15;;;;;;;9.90;4.73;;;12.50;94.80;;;;;;5053863;28;21012;-49
2023/05/27 00:58:42;;;;;;;13.03;5.27;;;12.40;94.80;;;;;;5051827;28;20531;-49
2023/05/27 01:01:09;;;;;;;10.63;5.10;;;12.50;95.00;;;;;;5052364;28;20438;-48
2023/05/27 01:03:38;;;;;;;8.43;4.30;;;12.20;94.90;;;;;;5052168;28;20901;-48
2023/05/27 01:06:15;;;;;;;15.33;5.40;;;12.40;95.10;;;;;;5052073;28;20486;-48
2023/05/27 01:08:49;;;;;;;10.87;4.50;;;12.30;95.30;;;;;;5052081;28;20940;-49
2023/05/27 01:11:23;;;;;;;10.60;5.20;;;12.40;95.50;;;;;;5051859;28;20442;-48
2023/05/27 01:13:55;;;;;;;12.27;4.30;;;12.30;95.60;;;;;;5051937;28;20451;-49
2023/05/27 01:16:25;;;;;;;8.83;4.40;;;12.30;95.60;;;;;;5052014;28;20492;-49
2023/05/27 01:18:54;;;;;;;12.23;5.00;;;12.20;95.80;;;;;;5051600;28;20940;-49
2023/05/27 01:21:24;;;;;;;12.23;5.23;;;12.20;95.90;;;;;;5052865;28;20447;-49
2023/05/27 01:23:53;;;;;;;17.67;5.40;;;12.40;96.20;;;;;;5052578;28;20444;-49
2023/05/27 01:26:23;;;;;;;18.20;4.07;;;12.20;96.20;;;;;;5051733;28;20433;-48
2023/05/27 01:28:51;;;;;;;9.10;3.63;;;12.60;96.80;;;;;;5051193;28;21033;-48
2023/05/27 01:31:26;;;;;;;22.97;5.87;;;12.40;96.70;;;;;;5051617;28;20492;-48
2023/05/27 01:34:02;;;;;;;13.23;4.43;;;12.10;96.60;;;;;;5051811;28;20443;-48
2023/05/27 01:36:34;;;;;;;14.57;4.50;;;12.10;96.60;;;;;;5051604;28;20485;-49
2023/05/27 01:39:04;;;;;;;10.57;4.93;;;12.00;96.70;;;;;;5067787;28;20553;-49
2023/05/27 01:41:32;;;;;;;10.80;4.10;;;12.10;96.80;;;;;;5051437;28;21013;-49
2023/05/27 01:43:59;;;;;;;15.53;4.70;;;12.00;96.90;;;;;;5052824;28;20477;-49
2023/05/27 01:46:28;;;;;;;10.90;4.90;;;12.10;97.10;;;;;;5051502;28;20991;-49
2023/05/27 01:48:55;;;;;;;9.13;4.40;;;12.20;97.20;;;;;;5051017;28;20481;-50
2023/05/27 01:51:22;;;;;;;11.33;4.77;;;11.90;97.20;;;;;;5051364;28;20462;-50
2023/05/27 01:53:52;;;;;;;12.73;4.53;;;11.90;97.50;;;;;;5051508;28;20477;-49
2023/05/27 01:56:22;;;;;;;11.43;5.40;;;11.90;97.70;;;;;;5051361;28;20427;-48
2023/05/27 01:58:49;;;;;;;12.20;4.67;;;12.10;98.10;;;;;;5050934;28;20436;-48
2023/05/27 02:01:16;;;;;;;9.47;4.93;;;11.80;98.00;;;;;;5051236;28;20458;-48
2023/05/27 02:03:45;;;;;;;12.63;4.60;;;11.90;98.10;;;;;;5051210;28;20450;-48
2023/05/27 02:06:12;;;;;;;11.30;4.17;;;11.80;98.20;;;;;;5051315;28;20460;-48
2023/05/27 02:08:39;;;;;;;10.70;4.67;;;12.00;98.40;;;;;;5050833;28;20500;-49
2023/05/27 02:11:10;;;;;;;12.90;5.57;;;11.90;98.50;;;;;;5051098;28;20509;-48
2023/05/27 02:13:42;;;;;;;12.67;4.50;;;12.00;98.70;;;;;;5051169;28;20521;-47
2023/05/27 02:16:15;;;;;;;19.63;4.80;;;11.80;98.60;;;;;;5050971;28;20462;-48
2023/05/27 02:18:44;;;;;;;10.47;4.40;;;11.70;98.70;;;;;;5067010;28;20980;-49
2023/05/27 02:21:13;;;;;;;15.40;5.50;;;11.70;98.90;;;;;;5050333;28;20466;-49
2023/05/27 02:23:40;;;;;;;20.80;6.17;;;11.70;99.10;;;;;;5050773;28;20452;-50
2023/05/27 02:26:07;;;;;;;10.33;5.03;;;11.80;99.20;;;;;;5050615;28;20539;-48
2023/05/27 02:28:35;;;;;;;14.40;5.60;;;11.60;99.10;;;;;;5050131;28;20525;-48
2023/05/27 02:31:03;;;;;;;14.93;5.47;;;11.50;99.20;;;;;;5051863;28;20422;-48
2023/05/27 02:33:30;;;;;;;11.53;4.43;;;11.60;99.30;;;;;;5050145;28;20567;-49
2023/05/27 02:35:57;;;;;;;13.83;4.60;;;11.50;99.30;;;;;;5050376;28;21055;-48
2023/05/27 02:38:25;;;;;;;19.97;5.40;;;11.50;99.60;;;;;;5049980;28;20435;-48
2023/05/27 02:40:58;;;;;;;13.07;4.87;;;11.60;99.90;;;;;;5050642;28;20456;-48
2023/05/27 02:43:27;;;;;;;21.27;5.63;;;11.50;99.80;;;;;;5050654;28;20476;-47
2023/05/27 02:45:57;;;;;;;13.13;5.40;;;11.90;99.90;;;;;;5050384;28;20579;-50
2023/05/27 02:48:27;;;;;;;11.80;5.70;;;11.50;99.90;;;;;;5051442;28;20482;-48
2023/05/27 02:50:57;;;;;;;13.67;5.50;;;11.50;99.90;;;;;;5050174;28;20863;-48
2023/05/27 02:53:27;;;;;;;16.23;5.60;;;11.40;99.90;;;;;;5050156;28;20445;-48
2023/05/27 02:55:56;;;;;;;16.00;5.77;;;11.50;99.90;;;;;;5050150;28;20425;-47
2023/05/27 02:58:27;;;;;;;14.43;6.27;;;11.30;99.90;;;;;;5049742;28;20446;-48
2023/05/27 03:00:59;;;;;;;14.00;5.00;;;11.40;99.90;;;;;;5050175;28;20417;-49
2023/05/27 03:03:27;;;;;;;16.33;5.10;;;11.40;99.90;;;;;;5050079;28;20563;-49
2023/05/27 03:05:57;;;;;;;15.37;5.50;;;11.40;99.90;;;;;;5050191;28;20421;-49
2023/05/27 03:08:29;;;;;;;12.33;5.27;;;11.40;99.90;;;;;;5050946;28;20446;-49
2023/05/27 03:10:56;;;;;;;13.40;5.53;;;11.40;99.90;;;;;;5049726;28;20453;-49
2023/05/27 03:13:26;;;;;;;16.03;4.63;;;11.40;99.90;;;;;;5051255;28;20438;-49
2023/05/27 03:15:54;;;;;;;20.17;6.00;;;11.30;99.90;;;;;;5050359;28;20422;-49
2023/05/27 03:18:23;;;;;;;14.43;4.67;;;11.40;99.90;;;;;;5048812;28;20543;-50
2023/05/27 03:20:54;;;;;;;11.13;4.70;;;11.40;99.90;;;;;;5049940;28;20816;-49
2023/05/27 03:23:24;;;;;;;11.23;5.73;;;11.40;99.90;;;;;;5051121;28;20784;-48
2023/05/27 03:25:51;;;;;;;20.07;5.93;;;11.50;99.90;;;;;;5049728;28;20542;-50
2023/05/27 03:28:18;;;;;;;14.60;5.67;;;11.40;99.90;;;;;;5049091;28;20482;-48
2023/05/27 03:30:46;;;;;;;13.77;6.17;;;11.40;99.90;;;;;;5050337;28;20446;-47
2023/05/27 03:33:24;;;;;;;17.57;5.53;;;11.40;99.90;;;;;;5050044;28;20980;-48
2023/05/27 03:35:51;;;;;;;11.30;4.97;;;11.40;99.90;;;;;;5050004;28;20800;-49
2023/05/27 03:38:20;;;;;;;15.20;5.83;;;11.50;99.90;;;;;;5049694;28;20531;-51
2023/05/27 03:40:47;;;;;;;10.53;5.40;;;11.50;99.90;;;;;;5050091;28;20451;-48
2023/05/27 03:43:16;;;;;;;14.70;6.53;;;11.60;99.90;;;;;;5049984;28;20475;-48
2023/05/27 03:45:52;;;;;;;12.73;4.77;;;11.50;99.90;;;;;;5051435;28;20450;-49
2023/05/27 03:48:22;;;;;;;15.47;5.60;;;11.70;99.90;;;;;;5053639;28;20481;-50
2023/05/27 03:50:49;;;;;;;12.30;5.83;;;11.50;99.90;;;;;;5054035;28;20492;-49
2023/05/27 03:53:16;;;;;;;12.83;5.57;;;11.50;99.90;;;;;;5053359;28;20468;-49
2023/05/27 03:55:44;;;;;;;9.50;5.60;;;11.60;99.90;;;;;;5053694;28;20413;-51
2023/05/27 03:58:14;;;;;;;17.87;5.60;;;11.70;99.90;;;;;;5053792;28;20534;-48
2023/05/27 04:00:41;;;;;;;14.90;5.30;;;11.80;99.90;;;;;;5053753;28;20461;-50
2023/05/27 04:03:08;;;;;;;11.30;4.80;;;11.80;99.90;;;;;;5053114;28;20471;-49
2023/05/27 04:05:37;;;;;;;15.70;5.20;;;12.20;99.90;;;;;;5053457;28;20808;-48
2023/05/27 04:08:05;;;;;;;11.70;4.87;;;11.90;99.90;;;;;;5054525;28;20471;-48
2023/05/27 04:10:32;;;;;;;12.43;5.90;;;12.00;99.90;;;;;;5053289;28;20444;-49
2023/05/27 04:13:00;;;;;;;8.80;4.63;;;12.40;99.90;;;;;;5054515;28;20467;-50
2023/05/27 04:15:27;;;;;;;15.00;5.80;;;12.20;99.90;;;;;;5053131;28;20825;-49
2023/05/27 04:17:54;;;;;;;13.60;5.60;;;12.40;99.90;;;;;;5053317;28;21003;-49
2023/05/27 04:20:21;;;;;;;14.57;5.73;;;12.40;99.90;;;;;;5053316;28;20571;-50
2023/05/27 04:22:53;;;;;;;14.60;6.00;;;12.50;99.90;;;;;;5053578;28;20476;-48
2023/05/27 04:25:21;;;;;;;14.33;5.10;;;12.50;99.90;;;;;;5053077;28;20587;-48
2023/05/27 04:28:04;;;;;;;10.50;5.20;;;12.60;99.90;;;;;;5053212;28;20562;-49
2023/05/27 04:30:33;;;;;;;12.83;6.00;;;12.70;99.90;;;;;;5053520;28;20442;-49
2023/05/27 04:33:04;;;;;;;13.83;5.63;;;12.60;99.90;;;;;;5053150;28;20472;-49
2023/05/27 04:35:33;;;;;;;14.80;5.27;;;12.90;99.90;;;;;;5053254;28;20853;-50
2023/05/27 04:38:00;;;;;;;14.17;5.50;;;13.10;99.90;;;;;;5054387;28;20837;-50
2023/05/27 04:40:34;;;;;;;19.07;6.10;;;13.10;99.90;;;;;;5052504;28;20460;-49
2023/05/27 04:43:21;;;;;;;10.57;5.47;;;13.20;99.80;;;;;;5052630;28;20843;-48
2023/05/27 04:45:48;;;;;;;18.20;6.30;;;13.10;99.50;;;;;;5052528;28;20493;-48
2023/05/27 04:48:18;;;;;;;21.50;5.60;;;13.20;99.60;;;;;;5052135;28;20448;-49
2023/05/27 04:50:45;;;;;;;12.57;5.50;;;13.30;99.50;;;;;;5052685;28;20894;-49
2023/05/27 04:53:12;;;;;;;12.20;4.73;;;13.30;99.40;;;;;;5052308;28;20488;-50
2023/05/27 04:55:41;;;;;;;13.27;5.20;;;13.40;99.30;;;;;;5052444;28;20457;-48
2023/05/27 04:58:08;;;;;;;9.67;5.50;;;13.40;99.10;;;;;;5050673;28;20506;-49
2023/05/27 05:00:49;;;;;;;11.80;5.67;;;13.60;99.00;;;;;;5052418;28;20823;-49
2023/05/27 05:03:20;;;;;;;14.30;6.47;;;13.70;98.90;;;;;;5052388;28;20493;-49
2023/05/27 05:05:50;;;;;;;13.00;5.40;;;13.70;98.60;;;;;;5052410;28;20432;-50
2023/05/27 05:08:17;;;;;;;19.80;5.73;;;13.80;98.50;;;;;;5051938;28;20486;-49
2023/05/27 05:10:44;;;;;;;17.83;6.17;;;13.80;98.30;;;;;;5052664;28;20451;-48
2023/05/27 05:13:11;;;;;;;18.63;4.87;;;13.90;98.20;;;;;;5052469;28;20467;-50
2023/05/27 05:15:40;;;;;;;14.20;5.33;;;14.00;98.10;;;;;;5052271;28;20454;-49
2023/05/27 05:18:07;;;;;;;13.10;4.60;;;14.00;98.00;;;;;;5052102;28;20421;-49
2023/05/27 05:20:35;;;;;;;14.03;5.37;;;14.00;97.90;;;;;;5051880;28;20520;-49
2023/05/27 05:23:02;;;;;;;13.83;5.10;;;14.40;98.00;;;;;;5051880;28;20582;-49
2023/05/27 05:25:35;;;;;;;10.37;4.80;;;14.20;97.60;;;;;;5051658;28;20536;-49
2023/05/27 05:28:05;;;;;;;13.70;6.83;;;14.40;97.40;;;;;;5051572;28;20447;-49
2023/05/27 05:30:37;;;;;;;13.20;5.10;;;14.60;97.20;;;;;;5051513;28;20446;-48
2023/05/27 05:33:13;;;;;;;11.60;4.03;;;14.90;97.00;;;;;;5051415;28;20943;-49
2023/05/27 05:35:42;;;;;;;13.90;4.23;;;14.90;96.50;;;;;;5051671;28;20449;-48
2023/05/27 05:38:21;;;;;;;12.67;5.60;;;15.00;96.20;;;;;;5051361;28;20882;-49
2023/05/27 05:40:52;;;;;;;6.63;3.50;;;15.10;95.90;;;;;;5051439;28;20557;-49
2023/05/27 05:43:22;;;;;;;10.20;4.30;;;15.20;95.40;;;;;;5051565;28;20484;-49
2023/05/27 05:45:50;;;;;;;10.80;4.70;;;15.50;95.50;;;;;;5051558;28;20451;-50
2023/05/27 05:48:22;;;;;;;14.10;4.90;;;15.40;95.10;;;;;;5050915;28;20502;-50
2023/05/27 05:50:50;;;;;;;5.47;3.50;;;15.50;94.60;;;;;;5051338;28;20450;-49
2023/05/27 05:53:17;;;;;;;7.97;3.47;;;15.30;94.10;;;;;;5051144;28;20534;-49
2023/05/27 05:55:44;;;;;;;10.27;3.93;;;15.50;93.90;;;;;;5051041;28;20450;-49
2023/05/27 05:58:12;;;;;;;9.90;3.50;;;15.50;93.70;;;;;;5050801;28;20470;-50
2023/05/27 06:00:39;;;;;;;7.47;3.30;;;15.60;93.50;;;;;;5051287;28;20842;-49
2023/05/27 06:03:27;;;;;;;8.23;3.37;;;15.60;93.00;;;;;;5052215;28;20466;-48
2023/05/27 06:05:57;;;;;;;10.00;3.23;;;15.90;92.90;;;;;;5051124;28;20453;-49
2023/05/27 06:08:27;;;;;;;9.47;3.53;;;15.70;92.60;;;;;;5050229;28;20968;-48
2023/05/27 06:11:04;;;;;;;7.53;3.30;;;15.80;92.20;;;;;;5051325;28;20438;-48
2023/05/27 06:13:34;;;;;;;5.17;3.13;;;15.90;91.80;;;;;;5057255;23;20503;-49
2023/05/27 06:16:02;;;;;;;6.47;3.00;;;15.80;91.90;;;;;;5031315;28;20434;-49
2023/05/27 06:18:31;;;;;;;6.47;3.10;;;16.00;91.00;;;;;;5030838;28;20447;-50
2023/05/27 06:20:58;;;;;;;5.23;2.97;;;16.10;90.60;;;;;;5031201;28;20885;-50
2023/05/27 06:23:30;;;;;;;5.40;2.93;;;16.20;90.30;;;;;;5031057;28;20472;-49
2023/05/27 06:26:18;;;;;;;8.10;2.63;;;16.20;89.80;;;;;;5032135;28;20465;-49
2023/05/27 06:28:49;;;;;;;5.33;2.47;;;16.30;86.30;;;;;;5030619;28;20503;-50
2023/05/27 06:31:17;;;;;;;6.63;2.00;;;16.50;84.80;;;;;;5031221;28;20456;-49
2023/05/27 06:33:45;;;;;;;6.47;3.53;;;16.40;80.90;;;;;;5032704;28;20458;-50
2023/05/27 06:36:12;;;;;;;5.87;2.40;;;16.50;81.00;;;;;;5032305;28;20418;-50
2023/05/27 06:38:41;;;;;;;5.00;2.07;;;16.50;80.30;;;;;;5030819;28;20454;-49
2023/05/27 06:41:09;;;;;;;3.97;1.57;;;16.50;79.50;;;;;;5030966;28;20430;-49
2023/05/27 06:43:38;;;;;;;5.40;2.30;;;17.10;78.10;;;;;;5030802;28;20458;-48
2023/05/27 06:46:28;;;;;;;3.10;1.53;;;16.70;77.40;;;;;;5032049;28;20530;-51
2023/05/27 06:49:17;;;;;;;4.90;1.50;;;16.70;77.00;;;;;;5031376;28;20487;-49
2023/05/27 06:51:44;;;;;;;4.87;1.63;;;16.50;74.90;;;;;;5030819;28;20940;-49
2023/05/27 06:54:12;;;;;;;4.10;1.90;;;16.60;75.90;;;;;;5030851;28;20458;-48
2023/05/27 06:56:43;;;;;;;5.10;1.67;;;16.50;74.80;;;;;;5030234;28;20447;-49
2023/05/27 06:59:10;;;;;;;3.87;1.97;;;16.70;73.90;;;;;;5031659;28;20435;-49
2023/05/27 07:01:37;;;;;;;4.30;1.33;;;16.80;73.70;;;;;;5030449;28;20495;-50
2023/05/27 07:04:07;;;;;;;2.67;1.73;;;16.70;70.60;;;;;;5030290;28;20451;-49
2023/05/27 07:06:49;;;;;;;3.33;1.30;;;16.70;71.70;;;;;;5030606;28;20445;-49
2023/05/27 07:09:16;;;;;;;2.83;1.40;;;16.60;71.40;;;;;;5030227;28;20520;-49
2023/05/27 07:11:44;;;;;;;4.30;2.03;;;16.50;71.10;;;;;;5031446;28;20514;-50
2023/05/27 07:14:16;;;;;;;4.03;1.60;;;16.70;72.30;;;;;;5030394;28;21128;-51
2023/05/27 07:16:44;;;;;;;4.30;1.30;;;16.80;73.50;;;;;;5030254;28;20466;-51
2023/05/27 07:19:12;;;;;;;5.03;1.33;;;17.10;71.40;;;;;;5030042;28;20456;-50
2023/05/27 07:21:51;;;;;;;2.93;1.17;;;16.70;69.30;;;;;;5033679;28;20502;-50
2023/05/27 07:24:23;;;;;;;2.83;1.10;;;16.70;68.00;;;;;;5034531;28;20816;-51
2023/05/27 07:27:01;;;;;;;1.90;1.10;;;16.80;66.20;;;;;;5034427;28;20451;-50
2023/05/27 07:29:30;;;;;;;5.30;1.27;;;16.70;66.20;;;;;;5033945;28;20479;-50
2023/05/27 07:32:12;;;;;;;3.03;1.50;;;16.70;66.90;;;;;;5035823;28;20540;-50
2023/05/27 07:34:40;;;;;;;3.50;1.60;;;16.90;67.10;;;;;;5034105;28;20866;-50
2023/05/27 07:37:08;;;;;;;2.90;1.37;;;16.80;66.00;;;;;;5034145;28;20480;-51
2023/05/27 07:39:35;;;;;;;2.40;1.30;;;16.80;64.70;;;;;;5033567;28;20444;-51
2023/05/27 07:42:06;;;;;;;4.00;1.37;;;17.20;64.80;;;;;;5034061;28;20465;-49
2023/05/27 07:44:33;;;;;;;5.33;1.57;;;17.00;64.60;;;;;;5034217;28;20454;-50
2023/05/27 07:47:03;;;;;;;4.23;1.30;;;17.00;64.70;;;;;;5033996;28;20464;-49
2023/05/27 07:49:32;;;;;;;6.97;1.33;;;17.00;64.30;;;;;;5033217;28;21076;-50
2023/05/27 07:52:24;;;;;;;5.67;1.20;;;17.00;62.80;;;;;;5033835;28;20472;-49
2023/05/27 07:54:51;;;;;;;3.07;1.07;;;17.00;62.40;;;;;;5033773;28;20431;-49
2023/05/27 07:57:20;;;;;;;2.53;1.67;;;17.00;63.40;;;;;;5033853;28;20480;-49
2023/05/27 07:59:49;;;;;;;2.33;1.20;;;17.10;63.80;;;;;;5033116;28;20454;-49
2023/05/27 08:02:17;;;;;;;4.00;1.50;;;17.10;63.20;;;;;;5033516;28;20483;-49
2023/05/27 08:04:45;;;;;;;2.33;1.07;;;17.10;62.20;;;;;;5033288;28;20443;-49
2023/05/27 08:07:39;;;;;;;3.30;1.10;;;17.30;61.70;;;;;;5033533;28;20448;-49
2023/05/27 08:10:35;;;;;;;2.07;1.00;;;17.10;61.50;;;;;;5032542;28;20488;-50
2023/05/27 08:13:18;;;;;;;3.57;1.00;;;17.20;61.20;;;;;;5033293;28;20477;-49
2023/05/27 08:16:06;;;;;;;2.57;1.90;;;17.20;60.30;;;;;;5034400;28;20513;-50
2023/05/27 08:18:43;;;;;;;8.03;1.17;;;17.10;59.30;;;;;;5032747;28;20497;-50
2023/05/27 08:21:23;;;;;;;2.43;1.00;;;17.10;58.00;;;;;;5033244;28;20479;-49
2023/05/27 08:24:00;;;;;;;1.80;0.93;;;17.00;58.10;;;;;;5033075;28;20455;-50
2023/05/27 08:26:44;;;;;;;3.57;1.47;;;17.20;58.70;;;;;;5033261;28;20548;-49
2023/05/27 08:29:37;;;;;;;3.13;1.23;;;17.30;58.10;;;;;;5033738;28;20980;-50
2023/05/27 08:32:14;;;;;;;1.77;1.10;;;17.80;58.30;;;;;;5033773;28;20832;-50
2023/05/27 08:34:42;;;;;;;2.17;1.30;;;17.50;59.00;;;;;;5032837;28;20427;-50
2023/05/27 08:37:08;;;;;;;1.70;0.90;;;17.60;57.70;;;;;;5032848;28;20506;-49
2023/05/27 08:39:41;;;;;;;2.63;0.83;;;17.30;56.40;;;;;;5032774;28;20957;-49
2023/05/27 08:42:27;;;;;;;3.43;1.27;;;17.40;56.40;;;;;;5032673;28;20472;-50
2023/05/27 08:44:54;;;;;;;1.87;1.13;;;17.30;56.90;;;;;;5032293;28;20831;-49
2023/05/27 08:47:20;;;;;;;2.53;1.13;;;17.60;57.40;;;;;;5032797;28;20458;-50
2023/05/27 08:49:47;;;;;;;3.00;0.90;;;17.30;57.00;;;;;;5032341;28;20852;-50
2023/05/27 08:52:19;;;;;;;2.70;1.27;;;17.80;56.80;;;;;;5032553;28;20508;-50
2023/05/27 08:54:49;;;;;;;3.37;1.00;;;17.40;55.60;;;;;;5032549;28;20472;-50
2023/05/27 08:57:20;;;;;;;2.60;1.30;;;17.50;55.30;;;;;;5033550;28;20425;-49
2023/05/27 08:59:47;;;;;;;3.50;1.33;;;17.90;56.30;;;;;;5032144;28;20442;-50
2023/05/27 09:02:15;;;;;;;16.13;2.20;;;17.80;55.30;;;;;;5032912;28;20565;-50
2023/05/27 09:04:43;;;;;;;6.10;1.87;;;17.70;55.30;;;;;;5032562;28;20502;-50
2023/05/27 09:07:10;;;;;;;2.40;1.07;;;17.50;54.90;;;;;;5033732;28;20428;-52
2023/05/27 09:09:36;;;;;;;6.10;1.70;;;17.60;55.00;;;;;;5033269;28;20505;-50
2023/05/27 09:12:05;;;;;;;4.73;1.27;;;17.80;55.10;;;;;;5033197;28;20465;-50
2023/05/27 09:14:33;;;;;;;2.93;1.40;;;17.90;55.10;;;;;;5033743;28;20450;-50
2023/05/27 09:17:06;;;;;;;4.00;1.20;;;17.80;54.80;;;;;;5033557;28;20942;-50
2023/05/27 09:19:33;;;;;;;2.50;1.20;;;17.90;54.80;;;;;;5033012;28;20441;-50
2023/05/27 09:21:59;;;;;;;1.80;1.07;;;17.50;53.30;;;;;;5033650;28;20454;-51
2023/05/27 09:24:27;;;;;;;2.87;1.40;;;18.10;53.40;;;;;;5033465;28;20442;-51
2023/05/27 09:26:55;;;;;;;1.90;1.33;;;18.20;53.30;;;;;;5033487;28;20531;-50
2023/05/27 09:29:24;;;;;;;2.50;1.27;;;17.80;53.20;;;;;;5033154;28;20556;-50
2023/05/27 09:31:54;;;;;;;1.50;1.00;;;17.80;52.60;;;;;;5033264;28;20455;-50
2023/05/27 09:34:21;;;;;;;1.80;1.10;;;17.90;52.70;;;;;;5033332;28;20526;-50
2023/05/27 09:36:49;;;;;;;3.20;1.57;;;17.80;53.00;;;;;;5033264;28;20876;-50
2023/05/27 09:39:18;;;;;;;2.80;1.40;;;18.10;53.10;;;;;;5032863;28;20447;-51
2023/05/27 09:41:50;;;;;;;2.77;1.10;;;17.80;52.80;;;;;;5033128;28;20535;-51
2023/05/27 09:44:16;;;;;;;4.00;1.60;;;18.20;53.00;;;;;;5032311;28;20447;-51
2023/05/27 09:46:45;;;;;;;2.60;1.53;;;17.70;52.70;;;;;;5033579;28;20438;-48
2023/05/27 09:49:14;;;;;;;3.63;1.30;;;18.00;53.20;;;;;;5032729;28;20441;-49
2023/05/27 09:51:42;;;;;;;2.43;1.40;;;17.90;53.20;;;;;;5033004;28;20958;-52
2023/05/27 09:54:10;;;;;;;2.70;0.97;;;17.90;53.50;;;;;;5032989;28;20503;-50
2023/05/27 09:56:37;;;;;;;2.93;1.60;;;17.80;53.30;;;;;;5031346;28;20454;-49
2023/05/27 09:59:06;;;;;;;2.60;1.10;;;17.90;53.60;;;;;;5032318;28;20764;-49
2023/05/27 10:01:33;;;;;;;3.90;1.30;;;17.80;53.70;;;;;;5032095;28;20434;-50
2023/05/27 10:04:01;;;;;;;2.90;1.57;;;18.10;53.90;;;;;;5032580;28;20453;-49
2023/05/27 10:06:29;;;;;;;4.53;1.40;;;17.90;53.70;;;;;;5032446;28;20433;-53
2023/05/27 10:08:56;;;;;;;3.10;1.20;;;18.20;53.70;;;;;;5032107;28;20923;-50
2023/05/27 10:11:23;;;;;;;2.50;1.37;;;18.30;53.90;;;;;;5032220;28;20489;-49
2023/05/27 10:13:50;;;;;;;2.80;1.23;;;18.20;53.80;;;;;;5032018;28;20545;-49
2023/05/27 10:16:21;;;;;;;1.87;1.17;;;17.60;53.00;;;;;;5032489;28;20787;-50
2023/05/27 10:18:52;;;;;;;2.80;1.27;;;18.10;53.60;;;;;;5032089;28;20435;-49
2023/05/27 10:21:22;;;;;;;4.10;1.50;;;18.30;53.90;;;;;;5032401;28;20436;-50
2023/05/27 10:23:56;;;;;;;2.43;1.33;;;18.20;53.70;;;;;;5032233;28;20458;-50
2023/05/27 10:26:32;;;;;;;4.27;1.30;;;18.10;53.50;;;;;;5031693;28;20445;-50
2023/05/27 10:29:07;;;;;;;3.30;1.87;;;18.10;53.60;;;;;;5032104;28;20441;-50
2023/05/27 10:31:34;;;;;;;3.10;1.50;;;18.30;53.60;;;;;;5032356;28;20456;-50
2023/05/27 10:34:04;;;;;;;2.57;1.57;;;18.30;53.50;;;;;;5032420;28;20439;-50
2023/05/27 10:36:33;;;;;;;3.40;1.70;;;18.40;53.50;;;;;;5032241;28;20982;-49
2023/05/27 10:39:02;;;;;;;4.13;1.43;;;18.10;53.30;;;;;;5031669;28;20489;-50
2023/05/27 10:41:38;;;;;;;7.50;2.00;;;18.50;53.80;;;;;;5031744;28;20539;-50
2023/05/27 10:44:05;;;;;;;5.97;2.00;;;18.30;53.50;;;;;;5031837;28;20892;-50
2023/05/27 10:46:40;;;;;;;3.73;1.67;;;18.60;53.90;;;;;;5031767;28;20439;-50
2023/05/27 10:49:17;;;;;;;2.17;1.23;;;18.30;53.60;;;;;;5031277;28;20484;-50
2023/05/27 10:51:49;;;;;;;3.37;1.70;;;18.80;54.00;;;;;;5031999;28;20496;-51
2023/05/27 10:54:16;;;;;;;3.83;1.73;;;18.20;53.50;;;;;;5031623;28;20434;-50
2023/05/27 10:56:50;;;;;;;3.50;1.70;;;18.30;54.00;;;;;;5031667;28;20481;-51
2023/05/27 10:59:21;;;;;;;2.40;1.50;;;18.40;54.10;;;;;;5031507;28;20834;-49
2023/05/27 11:01:51;;;;;;;3.00;1.40;;;18.40;54.20;;;;;;5031382;28;20454;-50
2023/05/27 11:04:18;;;;;;;2.37;1.50;;;18.40;54.00;;;;;;5031691;28;20529;-50
2023/05/27 11:06:57;;;;;;;3.30;2.43;;;18.10;53.30;;;;;;5031385;28;20465;-49
2023/05/27 11:09:24;;;;;;;3.97;1.87;;;18.70;53.50;;;;;;5031359;28;20498;-51
2023/05/27 11:11:51;;;;;;;2.10;1.47;;;18.50;53.20;;;;;;5031279;28;20545;-50
2023/05/27 11:14:19;;;;;;;3.07;1.87;;;18.20;53.00;;;;;;5031611;28;20443;-50
2023/05/27 11:16:47;;;;;;;2.70;1.63;;;18.40;53.30;;;;;;5031537;28;20439;-50
2023/05/27 11:19:14;;;;;;;4.03;1.90;;;18.50;53.80;;;;;;5031198;28;20458;-50
2023/05/27 11:21:45;;;;;;;2.77;1.80;;;18.40;53.60;;;;;;5031535;28;20446;-50
2023/05/27 11:24:17;;;;;;;2.43;1.73;;;18.40;53.50;;;;;;5031616;28;20447;-50
2023/05/27 11:26:46;;;;;;;3.90;1.90;;;18.70;53.30;;;;;;5031331;28;20447;-51
2023/05/27 11:29:13;;;;;;;4.23;2.30;;;18.90;53.80;;;;;;5030997;28;20968;-50
2023/05/27 11:31:40;;;;;;;3.80;1.97;;;18.90;53.70;;;;;;5031241;28;20526;-50
2023/05/27 11:34:13;;;;;;;3.63;2.13;;;18.80;53.20;;;;;;5031213;28;20994;-50
2023/05/27 11:36:39;;;;;;;3.23;2.00;;;18.70;53.20;;;;;;5031525;28;20443;-50
2023/05/27 11:39:08;;;;;;;4.17;1.70;;;18.80;53.00;;;;;;5030657;28;20840;-50
2023/05/27 11:41:36;;;;;;;5.23;2.40;;;19.20;53.20;;;;;;5030619;28;20975;-51
2023/05/27 11:44:06;;;;;;;3.40;1.90;;;18.70;52.80;;;;;;5031067;28;20807;-50
2023/05/27 11:46:36;;;;;;;3.53;2.00;;;18.70;52.70;;;;;;5030774;28;20962;-49
2023/05/27 11:49:04;;;;;;;4.60;1.50;;;19.00;53.60;;;;;;5030394;28;21036;-50
2023/05/27 11:51:31;;;;;;;3.43;2.00;;;18.70;52.90;;;;;;5030880;28;20478;-49
2023/05/27 11:54:00;;;;;;;4.33;1.83;;;19.00;52.90;;;;;;5031110;28;20437;-50
2023/05/27 11:56:28;;;;;;;3.70;1.90;;;19.10;52.10;;;;;;5031051;28;20439;-51
2023/05/27 11:58:56;;;;;;;4.67;1.70;;;19.10;51.80;;;;;;5030512;28;20936;-50
2023/05/27 12:01:24;;;;;;;2.23;1.63;;;19.10;51.40;;;;;;5030611;28;20439;-50
2023/05/27 12:03:50;;;;;;;6.43;2.40;;;19.10;51.80;;;;;;5030840;28;20454;-50
2023/05/27 12:06:17;;;;;;;2.60;1.90;;;19.20;51.50;;;;;;5031579;28;20855;-50
2023/05/27 12:08:44;;;;;;;3.33;2.20;;;19.20;51.40;;;;;;5034192;28;20445;-50
2023/05/27 12:11:11;;;;;;;5.93;2.10;;;19.20;51.60;;;;;;5034697;28;20478;-50
2023/05/27 12:13:37;;;;;;;3.43;2.10;;;19.30;51.60;;;;;;5034862;28;20453;-50
2023/05/27 12:16:06;;;;;;;2.73;1.67;;;18.80;50.90;;;;;;5034659;28;20438;-50
2023/05/27 12:18:33;;;;;;;2.33;1.63;;;19.20;51.10;;;;;;5034135;28;20636;-50
2023/05/27 12:20:59;;;;;;;2.67;1.70;;;19.30;50.70;;;;;;5034550;28;20438;-51
2023/05/27 12:23:26;;;;;;;3.00;1.60;;;19.40;50.40;;;;;;5034593;28;20525;-51
2023/05/27 12:25:52;;;;;;;2.13;1.63;;;18.90;50.00;;;;;;5034682;28;20454;-51
2023/05/27 12:28:19;;;;;;;3.63;2.03;;;19.30;50.20;;;;;;5034059;28;20431;-50
2023/05/27 12:30:47;;;;;;;3.40;1.73;;;19.70;50.50;;;;;;5034249;28;20479;-51
2023/05/27 12:33:15;;;;;;;2.73;1.40;;;19.30;50.10;;;;;;5034280;28;20459;-50
2023/05/27 12:35:42;;;;;;;3.40;1.80;;;19.50;49.70;;;;;;5034379;28;20958;-51
2023/05/27 12:38:08;;;;;;;7.03;1.37;;;19.40;49.60;;;;;;5033878;28;20435;-50
2023/05/27 12:40:35;;;;;;;5.43;1.43;;;19.40;49.50;;;;;;5034180;28;20439;-51
2023/05/27 12:43:03;;;;;;;6.40;3.10;;;19.20;49.10;;;;;;5033930;28;20443;-50
2023/05/27 12:45:30;;;;;;;4.23;1.53;;;19.20;49.30;;;;;;5033831;28;20541;-50
2023/05/27 12:47:58;;;;;;;4.30;1.80;;;19.50;49.10;;;;;;5033606;28;20443;-50
2023/05/27 12:50:26;;;;;;;2.90;1.43;;;19.50;49.10;;;;;;5033101;28;20482;-50
2023/05/27 12:52:53;;;;;;;2.70;1.50;;;19.30;48.60;;;;;;5033303;28;20464;-51
2023/05/27 12:55:20;;;;;;;3.70;1.77;;;19.40;49.00;;;;;;5033752;28;20435;-51
2023/05/27 12:57:48;;;;;;;2.17;1.63;;;19.40;49.10;;;;;;5033563;28;20752;-50